createdAt,value
2023-04-08T00:00:07.449Z,12.07
2023-04-08T00:01:40.243Z,11.80
2023-04-08T00:03:13.140Z,12.32
2023-04-08T00:04:46.140Z,11.77
2023-04-08T00:06:20.194Z,13.43
2023-04-08T00:07:52.894Z,10.48
2023-04-08T00:09:24.706Z,11.65
2023-04-08T00:10:57.717Z,11.98
2023-04-08T00:12:29.581Z,10.93
2023-04-08T00:14:04.113Z,12.23
2023-04-08T00:15:37.621Z,11.95
2023-04-08T00:17:10.396Z,13.30
2023-04-08T00:18:43.159Z,11.75
2023-04-08T00:20:15.885Z,11.45
2023-04-08T00:21:49.928Z,12.40
2023-04-08T00:23:21.668Z,12.43
2023-04-08T00:24:54.391Z,11.18
2023-04-08T00:26:27.333Z,13.55
2023-04-08T00:27:59.064Z,13.35
2023-04-08T00:29:32.163Z,13.00
2023-04-08T00:31:05.072Z,13.43
2023-04-08T00:32:37.946Z,11.80
2023-04-08T00:34:10.712Z,11.90
2023-04-08T00:35:43.453Z,14.10
2023-04-08T00:37:17.546Z,12.60
2023-04-08T00:38:50.642Z,13.48
2023-04-08T00:40:23.559Z,14.88
2023-04-08T00:41:57.544Z,15.65
2023-04-08T00:43:30.331Z,14.38
2023-04-08T00:45:02.120Z,13.43
2023-04-08T00:46:37.773Z,14.93
2023-04-08T00:48:10.553Z,12.18
2023-04-08T00:49:43.705Z,13.18
2023-04-08T00:51:16.879Z,16.20
2023-04-08T00:52:51.049Z,13.40
2023-04-08T00:54:23.852Z,14.95
2023-04-08T00:55:56.572Z,15.50
2023-04-08T00:57:29.626Z,14.10
2023-04-08T00:59:02.627Z,14.25
2023-04-08T01:00:39.342Z,13.20
2023-04-08T01:02:19.968Z,14.23
2023-04-08T01:03:59.228Z,14.40
2023-04-08T01:05:41.515Z,15.73
2023-04-08T01:07:18.677Z,13.63
2023-04-08T01:08:53.312Z,14.68
2023-04-08T01:10:31.286Z,15.73
2023-04-08T01:12:08.892Z,14.25
2023-04-08T01:13:43.895Z,13.95
2023-04-08T01:15:16.837Z,15.45
2023-04-08T01:16:50.255Z,15.93
2023-04-08T01:18:24.925Z,14.77
2023-04-08T01:20:01.776Z,14.90
2023-04-08T01:21:34.540Z,15.75
2023-04-08T01:23:14.065Z,15.82
2023-04-08T01:24:50.398Z,15.55
2023-04-08T01:26:26.842Z,17.02
2023-04-08T01:27:59.930Z,15.40
2023-04-08T01:29:34.787Z,16.75
2023-04-08T01:31:07.446Z,15.13
2023-04-08T01:32:41.243Z,16.00
2023-04-08T01:34:16.896Z,15.18
2023-04-08T01:35:49.875Z,15.48
2023-04-08T01:37:24.631Z,15.02
2023-04-08T01:38:57.766Z,17.52
2023-04-08T01:40:30.809Z,15.98
2023-04-08T01:42:05.905Z,16.30
2023-04-08T01:43:42.006Z,16.45
2023-04-08T01:45:16.743Z,15.88
2023-04-08T01:46:50.947Z,14.68
2023-04-08T01:48:25.336Z,15.02
2023-04-08T01:49:59.598Z,16.02
2023-04-08T01:51:33.352Z,15.73
2023-04-08T01:53:09.301Z,16.17
2023-04-08T01:54:42.026Z,15.40
2023-04-08T01:56:16.891Z,16.73
2023-04-08T01:57:53.741Z,17.80
2023-04-08T01:59:32.463Z,18.50
2023-04-08T02:01:07.220Z,15.80
2023-04-08T02:02:43.559Z,15.57
2023-04-08T02:04:17.319Z,16.63
2023-04-08T02:05:50.231Z,15.90
2023-04-08T02:07:22.286Z,17.00
2023-04-08T02:08:55.642Z,15.63
2023-04-08T02:10:28.444Z,16.27
2023-04-08T02:12:01.403Z,15.50
2023-04-08T02:13:35.577Z,17.90
2023-04-08T02:15:09.997Z,17.13
2023-04-08T02:16:51.328Z,16.40
2023-04-08T02:18:26.635Z,15.55
2023-04-08T02:20:05.508Z,16.95
2023-04-08T02:21:45.218Z,17.92
2023-04-08T02:23:22.694Z,17.92
2023-04-08T02:24:54.836Z,17.80
2023-04-08T02:26:28.435Z,15.85
2023-04-08T02:28:03.882Z,18.13
2023-04-08T02:29:40.261Z,15.75
2023-04-08T02:31:14.472Z,14.88
2023-04-08T02:32:48.817Z,14.82
2023-04-08T02:34:22.894Z,14.32
2023-04-08T02:35:56.706Z,15.82
2023-04-08T02:37:28.664Z,17.13
2023-04-08T02:39:01.387Z,16.88
2023-04-08T02:40:35.854Z,16.92
2023-04-08T02:42:10.672Z,15.38
2023-04-08T02:43:44.550Z,16.52
2023-04-08T02:45:18.935Z,16.73
2023-04-08T02:46:50.740Z,16.83
2023-04-08T02:48:23.450Z,15.35
2023-04-08T02:49:56.239Z,15.52
2023-04-08T02:51:28.944Z,15.68
2023-04-08T02:53:00.950Z,15.57
2023-04-08T02:54:33.621Z,16.20
2023-04-08T02:56:06.808Z,16.55
2023-04-08T02:57:41.338Z,16.13
2023-04-08T02:59:14.168Z,17.02
2023-04-08T03:00:47.331Z,16.63
2023-04-08T03:02:20.283Z,16.25
2023-04-08T03:03:53.311Z,15.75
2023-04-08T03:05:27.674Z,16.33
2023-04-08T03:06:59.400Z,15.40
2023-04-08T03:08:32.725Z,16.30
2023-04-08T03:10:06.550Z,13.65
2023-04-08T03:11:39.272Z,17.27
2023-04-08T03:13:11.087Z,14.30
2023-04-08T03:14:43.908Z,14.68
2023-04-08T03:16:17.969Z,14.05
2023-04-08T03:17:50.745Z,17.20
2023-04-08T03:19:23.517Z,17.80
2023-04-08T03:20:56.348Z,15.90
2023-04-08T03:22:29.212Z,13.68
2023-04-08T03:24:01.930Z,15.05
2023-04-08T03:25:34.651Z,16.30
2023-04-08T03:27:08.311Z,14.98
2023-04-08T03:28:41.014Z,16.65
2023-04-08T03:30:13.855Z,14.30
2023-04-08T03:31:47.023Z,15.15
2023-04-08T03:33:20.111Z,14.35
2023-04-08T03:34:53.414Z,14.02
2023-04-08T03:36:26.696Z,13.93
2023-04-08T03:37:59.382Z,13.85
2023-04-08T03:39:32.139Z,13.65
2023-04-08T03:41:04.895Z,14.68
2023-04-08T03:42:37.662Z,15.57
2023-04-08T03:44:10.436Z,15.18
2023-04-08T03:45:43.168Z,15.07
2023-04-08T03:47:17.274Z,14.85
2023-04-08T03:48:50.350Z,16.30
2023-04-08T03:50:23.283Z,14.27
2023-04-08T03:51:55.999Z,15.93
2023-04-08T03:53:29.341Z,15.93
2023-04-08T03:55:02.055Z,13.90
2023-04-08T03:56:33.785Z,14.48
2023-04-08T03:58:06.746Z,14.75
2023-04-08T03:59:40.767Z,16.30
2023-04-08T04:01:13.471Z,15.68
2023-04-08T04:02:47.621Z,16.48
2023-04-08T04:04:20.858Z,16.77
2023-04-08T04:05:54.004Z,15.18
2023-04-08T04:07:26.678Z,17.30
2023-04-08T04:08:59.443Z,15.63
2023-04-08T04:10:32.229Z,15.05
2023-04-08T04:12:05.003Z,17.58
2023-04-08T04:13:37.718Z,17.55
2023-04-08T04:15:11.264Z,16.75
2023-04-08T04:16:43.988Z,18.15
2023-04-08T04:18:18.033Z,18.15
2023-04-08T04:19:50.775Z,18.52
2023-04-08T04:21:23.529Z,16.63
2023-04-08T04:22:55.266Z,17.73
2023-04-08T04:24:27.960Z,16.70
2023-04-08T04:26:00.866Z,19.30
2023-04-08T04:27:33.560Z,16.83
2023-04-08T04:29:06.234Z,19.75
2023-04-08T04:30:39.271Z,19.83
2023-04-08T04:32:12.025Z,19.95
2023-04-08T04:33:47.210Z,20.85
2023-04-08T04:35:20.042Z,21.30
2023-04-08T04:36:52.743Z,20.42
2023-04-08T04:38:25.572Z,20.67
2023-04-08T04:39:58.286Z,19.25
2023-04-08T04:41:31.116Z,20.80
2023-04-08T04:43:03.859Z,23.23
2023-04-08T04:44:37.030Z,21.88
2023-04-08T04:46:09.762Z,20.67
2023-04-08T04:47:42.587Z,21.83
2023-04-08T04:49:16.781Z,19.33
2023-04-08T04:50:56.318Z,20.35
2023-04-08T04:52:29.062Z,23.85
2023-04-08T04:54:01.763Z,20.38
2023-04-08T04:55:34.475Z,19.48
2023-04-08T04:57:07.322Z,20.25
2023-04-08T04:58:40.074Z,18.80
2023-04-08T05:00:12.419Z,18.63
2023-04-08T05:01:45.468Z,19.60
2023-04-08T05:03:18.288Z,19.83
2023-04-08T05:04:53.657Z,18.92
2023-04-08T05:06:27.054Z,19.92
2023-04-08T05:07:58.993Z,18.85
2023-04-08T05:09:31.705Z,19.20
2023-04-08T05:11:04.424Z,18.65
2023-04-08T05:12:38.642Z,21.80
2023-04-08T05:14:11.422Z,20.33
2023-04-08T05:15:45.572Z,20.58
2023-04-08T05:17:18.324Z,20.67
2023-04-08T05:18:51.285Z,19.02
2023-04-08T05:20:25.469Z,20.80
2023-04-08T05:21:58.318Z,19.98
2023-04-08T05:23:31.118Z,19.27
2023-04-08T05:25:03.924Z,20.00
2023-04-08T05:26:38.356Z,21.73
2023-04-08T05:28:11.042Z,21.00
2023-04-08T05:29:43.742Z,20.90
2023-04-08T05:31:17.443Z,22.02
2023-04-08T05:32:51.051Z,18.77
2023-04-08T05:34:24.210Z,20.58
2023-04-08T05:35:58.296Z,19.40
2023-04-08T05:37:31.241Z,21.33
2023-04-08T05:39:04.010Z,19.60
2023-04-08T05:40:36.751Z,21.02
2023-04-08T05:42:09.741Z,18.13
2023-04-08T05:43:42.478Z,19.20
2023-04-08T05:45:16.095Z,19.48
2023-04-08T05:46:48.848Z,19.70
2023-04-08T05:48:21.616Z,19.00
2023-04-08T05:49:54.437Z,20.52
2023-04-08T05:51:28.455Z,21.23
2023-04-08T05:53:01.454Z,20.42
2023-04-08T05:54:34.163Z,23.63
2023-04-08T05:56:06.186Z,22.58
2023-04-08T05:57:38.934Z,24.20
2023-04-08T05:59:11.974Z,22.15
2023-04-08T06:00:44.692Z,22.75
2023-04-08T06:02:17.589Z,21.52
2023-04-08T06:03:52.560Z,24.38
2023-04-08T06:05:25.689Z,21.25
2023-04-08T06:07:02.410Z,21.98
2023-04-08T06:08:35.321Z,21.23
2023-04-08T06:10:09.554Z,21.40
2023-04-08T06:11:42.268Z,21.13
2023-04-08T06:13:14.939Z,21.73
2023-04-08T06:14:47.760Z,23.75
2023-04-08T06:16:21.354Z,23.10
2023-04-08T06:17:54.259Z,21.77
2023-04-08T06:19:26.980Z,21.67
2023-04-08T06:20:59.686Z,20.25
2023-04-08T06:22:33.733Z,19.10
2023-04-08T06:24:07.018Z,21.55
2023-04-08T06:25:38.850Z,21.27
2023-04-08T06:27:11.696Z,20.08
2023-04-08T06:28:44.399Z,22.60
2023-04-08T06:30:17.293Z,23.65
2023-04-08T06:31:50.309Z,22.75
2023-04-08T06:33:23.031Z,20.83
2023-04-08T06:34:56.203Z,22.55
2023-04-08T06:36:29.241Z,25.00
2023-04-08T06:38:03.474Z,25.42
2023-04-08T06:39:36.266Z,25.35
2023-04-08T06:41:09.311Z,23.70
2023-04-08T06:42:43.090Z,26.15
2023-04-08T06:44:15.807Z,23.73
2023-04-08T06:45:48.553Z,24.95
2023-04-08T06:47:21.309Z,27.58
2023-04-08T06:48:54.026Z,24.30
2023-04-08T06:50:26.747Z,23.42
2023-04-08T06:51:59.502Z,25.25
2023-04-08T06:53:33.691Z,24.85
2023-04-08T06:55:07.189Z,26.65
2023-04-08T06:56:39.899Z,25.63
2023-04-08T06:58:12.593Z,26.40
2023-04-08T06:59:45.281Z,25.08
2023-04-08T07:01:18.016Z,26.35
2023-04-08T07:02:51.235Z,25.50
2023-04-08T07:04:24.109Z,26.08
2023-04-08T07:05:56.943Z,25.50
2023-04-08T07:07:29.654Z,27.65
2023-04-08T07:09:04.659Z,25.27
2023-04-08T07:10:37.513Z,26.00
2023-04-08T07:12:10.216Z,25.58
2023-04-08T07:13:42.958Z,26.58
2023-04-08T07:15:15.676Z,26.48
2023-04-08T07:16:48.391Z,26.17
2023-04-08T07:18:21.698Z,25.13
2023-04-08T07:19:54.433Z,24.40
2023-04-08T07:21:27.185Z,25.40
2023-04-08T07:22:59.906Z,24.95
2023-04-08T07:24:34.312Z,26.52
2023-04-08T07:26:07.149Z,24.65
2023-04-08T07:27:39.870Z,25.45
2023-04-08T07:29:12.585Z,23.80
2023-04-08T07:30:45.382Z,23.25
2023-04-08T07:32:18.154Z,24.77
2023-04-08T07:33:50.860Z,23.70
2023-04-08T07:35:25.335Z,23.63
2023-04-08T07:36:58.040Z,21.98
2023-04-08T07:38:30.960Z,22.55
2023-04-08T07:40:05.866Z,24.10
2023-04-08T07:41:38.568Z,22.48
2023-04-08T07:43:11.277Z,23.58
2023-04-08T07:44:43.946Z,23.23
2023-04-08T07:46:16.676Z,22.83
2023-04-08T07:47:49.574Z,28.33
2023-04-08T07:49:22.419Z,24.80
2023-04-08T07:51:08.991Z,23.25
2023-04-08T07:52:43.520Z,24.55
2023-04-08T07:54:17.341Z,24.27
2023-04-08T07:55:51.438Z,23.88
2023-04-08T07:57:24.359Z,23.55
2023-04-08T07:58:57.409Z,22.73
2023-04-08T08:00:31.340Z,22.73
2023-04-08T08:02:04.162Z,22.67
2023-04-08T08:03:37.199Z,19.30
2023-04-08T08:05:10.442Z,24.33
2023-04-08T08:06:43.161Z,22.10
2023-04-08T08:08:15.999Z,24.27
2023-04-08T08:09:49.051Z,24.10
2023-04-08T08:11:23.354Z,24.08
2023-04-08T08:12:56.159Z,22.90
2023-04-08T08:14:28.919Z,22.20
2023-04-08T08:16:01.831Z,22.45
2023-04-08T08:17:34.610Z,24.65
2023-04-08T08:19:08.769Z,22.05
2023-04-08T08:20:41.494Z,21.92
2023-04-08T08:22:14.162Z,21.88
2023-04-08T08:23:47.104Z,20.67
2023-04-08T08:25:20.169Z,21.55
2023-04-08T08:26:54.250Z,24.48
2023-04-08T08:28:27.294Z,22.90
2023-04-08T08:30:00.009Z,22.48
2023-04-08T08:31:32.923Z,22.37
2023-04-08T08:33:05.750Z,21.92
2023-04-08T08:34:38.470Z,22.33
2023-04-08T08:36:11.194Z,22.65
2023-04-08T08:37:43.929Z,22.23
2023-04-08T08:39:16.632Z,22.57
2023-04-08T08:40:55.233Z,23.55
2023-04-08T08:42:29.258Z,22.27
2023-04-08T08:44:03.242Z,22.00
2023-04-08T08:45:39.643Z,22.02
2023-04-08T08:47:12.357Z,22.10
2023-04-08T08:48:45.306Z,20.52
2023-04-08T08:50:18.433Z,24.00
2023-04-08T08:51:53.778Z,22.40
2023-04-08T08:53:32.758Z,23.50
2023-04-08T08:55:27.657Z,22.77
2023-04-08T08:57:00.403Z,20.33
2023-04-08T08:58:34.758Z,23.02
2023-04-08T09:00:08.995Z,21.98
2023-04-08T09:01:41.957Z,21.67
2023-04-08T09:03:20.468Z,20.83
2023-04-08T09:04:59.469Z,20.80
2023-04-08T09:06:32.561Z,22.67
2023-04-08T09:08:05.441Z,23.30
2023-04-08T09:09:50.175Z,22.40
2023-04-08T09:11:22.865Z,21.73
2023-04-08T09:12:56.603Z,23.77
2023-04-08T09:14:30.755Z,21.97
2023-04-08T09:16:05.829Z,23.43
2023-04-08T09:17:40.153Z,22.57
2023-04-08T09:19:13.416Z,22.77
2023-04-08T09:20:53.495Z,22.13
2023-04-08T09:22:26.827Z,23.40
2023-04-08T09:23:59.534Z,22.02
2023-04-08T09:25:33.646Z,24.33
2023-04-08T09:27:06.560Z,22.27
2023-04-08T09:28:40.169Z,22.37
2023-04-08T09:30:17.449Z,22.15
2023-04-08T09:31:55.160Z,23.97
2023-04-08T09:33:32.538Z,25.70
2023-04-08T09:35:07.001Z,23.67
2023-04-08T09:36:39.803Z,22.57
2023-04-08T09:38:12.549Z,24.13
2023-04-08T09:39:45.268Z,22.03
2023-04-08T09:41:20.471Z,22.13
2023-04-08T09:42:56.154Z,23.33
2023-04-08T09:44:31.126Z,25.07
2023-04-08T09:46:08.556Z,22.47
2023-04-08T09:47:51.143Z,23.80
2023-04-08T09:49:27.777Z,24.00
2023-04-08T09:51:01.010Z,23.47
2023-04-08T09:52:40.120Z,25.60
2023-04-08T09:54:15.692Z,24.70
2023-04-08T09:55:54.252Z,23.17
2023-04-08T09:57:37.005Z,22.95
2023-04-08T09:59:17.308Z,21.58
2023-04-08T10:00:53.499Z,19.48
2023-04-08T10:02:31.784Z,19.10
2023-04-08T10:04:07.984Z,20.20
2023-04-08T10:05:43.797Z,18.57
2023-04-08T10:07:16.627Z,18.58
2023-04-08T10:08:49.501Z,20.30
2023-04-08T10:10:22.683Z,19.93
2023-04-08T10:11:56.256Z,18.65
2023-04-08T10:13:30.451Z,19.57
2023-04-08T10:15:30.831Z,19.17
2023-04-08T10:17:30.215Z,18.73
2023-04-08T10:19:02.948Z,18.27
2023-04-08T10:20:44.874Z,19.23
2023-04-08T10:22:51.541Z,20.20
2023-04-08T10:24:25.882Z,17.10
2023-04-08T10:25:58.591Z,19.17
2023-04-08T10:27:40.520Z,20.27
2023-04-08T10:29:33.409Z,17.27
2023-04-08T10:31:06.315Z,16.60
2023-04-08T10:32:43.489Z,15.57
2023-04-08T10:34:19.767Z,16.97
2023-04-08T10:35:55.746Z,15.13
2023-04-08T10:37:28.879Z,15.90
2023-04-08T10:39:01.690Z,15.83
2023-04-08T10:40:38.828Z,15.13
2023-04-08T10:42:13.406Z,16.67
2023-04-08T10:43:48.568Z,15.60
2023-04-08T10:45:22.123Z,18.30
2023-04-08T10:46:55.923Z,15.43
2023-04-08T10:48:30.078Z,14.80
2023-04-08T10:50:03.257Z,14.83
2023-04-08T10:51:36.199Z,16.00
2023-04-08T10:53:09.093Z,15.70
2023-04-08T10:54:48.234Z,14.07
2023-04-08T10:56:21.823Z,15.23
2023-04-08T10:57:57.741Z,15.07
2023-04-08T10:59:33.263Z,12.97
2023-04-08T11:01:07.983Z,13.17
2023-04-08T11:02:40.932Z,14.03
2023-04-08T11:04:16.524Z,12.60
2023-04-08T11:05:50.759Z,13.07
2023-04-08T11:07:23.518Z,12.03
2023-04-08T11:09:00.103Z,15.53
2023-04-08T11:10:38.363Z,13.77
2023-04-08T11:12:11.762Z,13.47
2023-04-08T11:13:53.420Z,11.50
2023-04-08T11:15:26.825Z,13.10
2023-04-08T11:17:01.448Z,11.37
2023-04-08T11:18:35.912Z,12.40
2023-04-08T11:20:11.437Z,11.90
2023-04-08T11:21:44.187Z,13.80
2023-04-08T11:23:17.103Z,13.43
2023-04-08T11:24:50.695Z,11.73
2023-04-08T11:26:23.923Z,12.10
2023-04-08T11:27:56.943Z,13.17
2023-04-08T11:29:31.186Z,13.37
2023-04-08T11:31:04.297Z,11.93
2023-04-08T11:32:37.832Z,13.17
2023-04-08T11:34:10.741Z,13.23
2023-04-08T11:35:45.248Z,14.40
2023-04-08T11:37:18.503Z,11.40
2023-04-08T11:38:51.302Z,11.97
2023-04-08T11:40:24.516Z,11.93
2023-04-08T11:41:57.446Z,12.37
2023-04-08T11:43:30.411Z,12.27
2023-04-08T11:45:03.470Z,12.17
2023-04-08T11:46:36.923Z,11.63
2023-04-08T11:48:11.207Z,11.97
2023-04-08T11:49:47.895Z,11.97
2023-04-08T11:51:21.939Z,11.03
2023-04-08T11:52:55.365Z,11.10
2023-04-08T11:54:29.437Z,13.50
2023-04-08T11:56:17.381Z,12.50
2023-04-08T11:57:51.047Z,11.50
2023-04-08T11:59:23.754Z,13.07
2023-04-08T12:00:56.454Z,11.60
2023-04-08T12:02:29.194Z,11.93
2023-04-08T12:04:02.884Z,12.07
2023-04-08T12:05:35.813Z,12.40
2023-04-08T12:07:10.868Z,11.33
2023-04-08T12:08:43.568Z,11.43
2023-04-08T12:10:16.458Z,11.73
2023-04-08T12:11:49.332Z,10.97
2023-04-08T12:13:22.015Z,11.83
2023-04-08T12:14:54.713Z,11.33
2023-04-08T12:16:27.530Z,11.10
2023-04-08T12:18:00.568Z,11.40
2023-04-08T12:19:34.476Z,11.10
2023-04-08T12:21:07.960Z,10.53
2023-04-08T12:22:41.985Z,9.07
2023-04-08T12:24:14.678Z,9.57
2023-04-08T12:25:47.377Z,9.43
2023-04-08T12:27:20.171Z,9.67
2023-04-08T12:28:52.858Z,11.33
2023-04-08T12:30:25.687Z,8.50
2023-04-08T12:31:58.467Z,8.83
2023-04-08T12:33:31.775Z,10.37
2023-04-08T12:35:04.728Z,9.57
2023-04-08T12:36:38.641Z,8.23
2023-04-08T12:38:13.942Z,8.97
2023-04-08T12:39:47.669Z,10.97
2023-04-08T12:41:20.408Z,9.27
2023-04-08T12:42:53.090Z,9.13
2023-04-08T12:44:25.837Z,10.00
2023-04-08T12:45:58.743Z,10.10
2023-04-08T12:47:31.460Z,8.70
2023-04-08T12:49:05.663Z,13.17
2023-04-08T12:50:38.816Z,8.40
2023-04-08T12:52:11.631Z,8.47
2023-04-08T12:53:45.654Z,8.40
2023-04-08T12:55:19.012Z,8.80
2023-04-08T12:56:51.716Z,10.23
2023-04-08T12:58:25.184Z,9.90
2023-04-08T12:59:58.087Z,9.40
2023-04-08T13:01:31.461Z,10.50
2023-04-08T13:03:04.447Z,9.33
2023-04-08T13:04:37.169Z,8.63
2023-04-08T13:06:09.861Z,8.93
2023-04-08T13:07:42.577Z,8.27
2023-04-08T13:09:16.595Z,10.43
2023-04-08T13:10:49.287Z,9.20
2023-04-08T13:12:22.563Z,8.13
2023-04-08T13:13:55.269Z,9.63
2023-04-08T13:15:28.310Z,7.57
2023-04-08T13:17:01.028Z,8.57
2023-04-08T13:18:33.719Z,9.47
2023-04-08T13:20:09.471Z,7.43
2023-04-08T13:21:42.757Z,9.03
2023-04-08T13:23:17.872Z,7.63
2023-04-08T13:24:52.009Z,8.33
2023-04-08T13:26:25.022Z,9.10
2023-04-08T13:27:57.738Z,8.97
2023-04-08T13:29:30.457Z,10.80
2023-04-08T13:31:03.167Z,8.97
2023-04-08T13:32:36.429Z,7.60
2023-04-08T13:34:09.117Z,7.30
2023-04-08T13:35:41.822Z,6.93
2023-04-08T13:37:14.565Z,7.57
2023-04-08T13:38:47.245Z,7.30
2023-04-08T13:40:21.381Z,8.20
2023-04-08T13:41:54.077Z,8.47
2023-04-08T13:43:27.238Z,8.47
2023-04-08T13:45:00.036Z,7.23
2023-04-08T13:46:32.749Z,7.63
2023-04-08T13:48:06.052Z,8.57
2023-04-08T13:49:38.916Z,7.23
2023-04-08T13:51:11.620Z,8.67
2023-04-08T13:52:44.301Z,8.13
2023-04-08T13:54:17.015Z,7.07
2023-04-08T13:55:54.904Z,8.30
2023-04-08T13:57:27.854Z,9.10
2023-04-08T13:59:00.749Z,9.60
2023-04-08T14:00:33.574Z,8.17
2023-04-08T14:02:06.596Z,7.27
2023-04-08T14:03:39.411Z,6.90
2023-04-08T14:05:12.122Z,7.17
2023-04-08T14:06:44.846Z,7.47
2023-04-08T14:08:24.821Z,6.33
2023-04-08T14:09:57.565Z,6.67
2023-04-08T14:11:31.603Z,8.20
2023-04-08T14:13:04.629Z,6.67
2023-04-08T14:14:37.418Z,6.60
2023-04-08T14:16:10.152Z,7.43
2023-04-08T14:17:42.851Z,8.17
2023-04-08T14:19:16.537Z,7.80
2023-04-08T14:20:49.220Z,7.07
2023-04-08T14:22:21.933Z,8.23
2023-04-08T14:23:54.740Z,7.83
2023-04-08T14:25:27.503Z,9.07
2023-04-08T14:27:01.879Z,8.33
2023-04-08T14:28:34.585Z,6.30
2023-04-08T14:30:08.830Z,7.10
2023-04-08T14:31:41.559Z,8.03
2023-04-08T14:33:14.419Z,7.03
2023-04-08T14:34:47.534Z,8.43
2023-04-08T14:36:21.241Z,6.70
2023-04-08T14:37:53.987Z,7.23
2023-04-08T14:39:26.983Z,6.93
2023-04-08T14:40:59.748Z,7.07
2023-04-08T14:42:33.837Z,6.37
2023-04-08T14:44:06.549Z,9.20
2023-04-08T14:45:39.253Z,6.20
2023-04-08T14:47:12.138Z,5.97
2023-04-08T14:48:45.271Z,6.03
2023-04-08T14:50:18.792Z,6.93
2023-04-08T14:51:53.251Z,7.03
2023-04-08T14:53:26.473Z,6.70
2023-04-08T14:54:59.171Z,6.63
2023-04-08T14:56:32.435Z,6.80
2023-04-08T14:58:06.733Z,7.07
2023-04-08T14:59:39.447Z,6.83
2023-04-08T15:01:12.252Z,6.20
2023-04-08T15:02:44.999Z,6.77
2023-04-08T15:04:17.810Z,7.00
2023-04-08T15:05:50.688Z,7.47
2023-04-08T15:07:23.627Z,7.20
2023-04-08T15:08:56.475Z,8.70
2023-04-08T15:10:29.188Z,8.43
2023-04-08T15:12:02.539Z,9.40
2023-04-08T15:13:36.794Z,7.90
2023-04-08T15:15:10.580Z,9.20
2023-04-08T15:16:43.371Z,10.33
2023-04-08T15:18:16.177Z,7.97
2023-04-08T15:19:49.090Z,7.53
2023-04-08T15:21:22.801Z,7.53
2023-04-08T15:22:55.681Z,8.00
2023-04-08T15:24:28.352Z,8.60
2023-04-08T15:26:01.125Z,7.90
2023-04-08T15:27:34.315Z,8.40
2023-04-08T15:29:08.419Z,9.47
2023-04-08T15:30:41.131Z,7.60
2023-04-08T15:32:13.921Z,8.33
2023-04-08T15:33:48.343Z,9.33
2023-04-08T15:35:21.589Z,9.57
2023-04-08T15:36:54.303Z,8.33
2023-04-08T15:38:28.037Z,8.27
2023-04-08T15:40:00.852Z,7.80
2023-04-08T15:41:33.597Z,8.97
2023-04-08T15:43:06.670Z,8.40
2023-04-08T15:44:40.775Z,9.90
2023-04-08T15:46:18.748Z,11.47
2023-04-08T15:47:52.386Z,9.53
2023-04-08T15:49:25.290Z,9.33
2023-04-08T15:50:58.007Z,8.87
2023-04-08T15:52:30.703Z,8.83
2023-04-08T15:54:03.413Z,8.93
2023-04-08T15:55:39.074Z,7.80
2023-04-08T15:57:11.770Z,9.40
2023-04-08T15:58:44.574Z,10.13
2023-04-08T16:00:18.803Z,8.33
2023-04-08T16:01:51.564Z,7.03
2023-04-08T16:03:24.808Z,7.17
2023-04-08T16:04:57.582Z,7.27
2023-04-08T16:06:30.315Z,8.27
2023-04-08T16:08:04.385Z,6.67
2023-04-08T16:09:37.093Z,7.43
2023-04-08T16:11:09.956Z,7.20
2023-04-08T16:12:42.646Z,8.80
2023-04-08T16:14:15.707Z,7.10
2023-04-08T16:15:50.610Z,8.33
2023-04-08T16:17:23.511Z,6.60
2023-04-08T16:18:56.587Z,6.50
2023-04-08T16:20:29.580Z,6.70
2023-04-08T16:22:02.265Z,8.73
2023-04-08T16:23:37.532Z,7.30
2023-04-08T16:25:10.597Z,7.73
2023-04-08T16:26:43.682Z,8.13
2023-04-08T16:28:16.396Z,8.30
2023-04-08T16:29:49.062Z,7.03
2023-04-08T16:31:23.249Z,6.60
2023-04-08T16:32:56.115Z,8.10
2023-04-08T16:34:29.113Z,7.73
2023-04-08T16:36:04.056Z,8.30
2023-04-08T16:37:36.777Z,9.33
2023-04-08T16:39:09.454Z,9.07
2023-04-08T16:40:42.535Z,10.67
2023-04-08T16:42:16.462Z,10.67
2023-04-08T16:43:49.442Z,7.97
2023-04-08T16:45:22.367Z,9.63
2023-04-08T16:46:56.430Z,11.27
2023-04-08T16:48:29.104Z,10.13
2023-04-08T16:50:01.800Z,9.00
2023-04-08T16:51:34.679Z,12.20
2023-04-08T16:53:07.458Z,10.50
2023-04-08T16:54:40.126Z,14.73
2023-04-08T16:56:16.366Z,16.73
2023-04-08T16:57:49.129Z,20.77
2023-04-08T16:59:21.857Z,12.43
2023-04-08T17:00:54.582Z,10.30
2023-04-08T17:02:28.769Z,21.03
2023-04-08T17:04:01.876Z,21.40
2023-04-08T17:05:34.603Z,21.83
2023-04-08T17:07:08.203Z,36.03
2023-04-08T17:08:43.127Z,15.13
2023-04-08T17:10:16.420Z,22.13
2023-04-08T17:11:49.120Z,20.37
2023-04-08T17:13:21.817Z,23.60
2023-04-08T17:14:54.557Z,19.47
2023-04-08T17:16:27.300Z,22.27
2023-04-08T17:18:01.357Z,16.87
2023-04-08T17:19:34.067Z,15.23
2023-04-08T17:21:06.922Z,12.40
2023-04-08T17:22:39.624Z,14.50
2023-04-08T17:24:12.391Z,11.47
2023-04-08T17:25:45.082Z,13.67
2023-04-08T17:27:17.888Z,15.13
2023-04-08T17:28:50.798Z,12.33
2023-04-08T17:30:23.745Z,10.90
2023-04-08T17:31:56.552Z,12.07
2023-04-08T17:33:30.946Z,11.87
2023-04-08T17:35:03.762Z,11.20
2023-04-08T17:36:36.505Z,11.03
2023-04-08T17:38:09.611Z,11.03
2023-04-08T17:39:42.636Z,11.57
2023-04-08T17:41:21.593Z,10.23
2023-04-08T17:43:02.944Z,10.00
2023-04-08T17:44:36.190Z,10.73
2023-04-08T17:46:08.936Z,12.20
2023-04-08T17:47:43.325Z,14.07
2023-04-08T17:49:17.397Z,11.17
2023-04-08T17:50:50.094Z,13.13
2023-04-08T17:52:22.968Z,11.47
2023-04-08T17:53:56.010Z,14.90
2023-04-08T17:55:29.173Z,14.17
2023-04-08T17:57:02.882Z,12.50
2023-04-08T17:58:35.894Z,13.17
2023-04-08T18:00:09.647Z,11.67
2023-04-08T18:01:42.881Z,13.83
2023-04-08T18:03:16.096Z,11.80
2023-04-08T18:04:50.648Z,14.77
2023-04-08T18:06:23.356Z,11.83
2023-04-08T18:07:56.033Z,11.90
2023-04-08T18:09:28.768Z,9.80
2023-04-08T18:11:05.420Z,11.60
2023-04-08T18:12:38.164Z,10.20
2023-04-08T18:14:12.405Z,11.17
2023-04-08T18:15:45.196Z,10.83
2023-04-08T18:17:17.902Z,11.50
2023-04-08T18:18:51.327Z,10.90
2023-04-08T18:20:25.404Z,11.03
2023-04-08T18:21:58.095Z,10.90
2023-04-08T18:23:30.807Z,10.93
2023-04-08T18:25:03.637Z,11.37
2023-04-08T18:26:36.428Z,11.53
2023-04-08T18:28:09.103Z,13.20
2023-04-08T18:29:41.920Z,12.03
2023-04-08T18:31:14.673Z,12.23
2023-04-08T18:32:47.494Z,12.67
2023-04-08T18:34:20.749Z,13.77
2023-04-08T18:35:56.106Z,13.30
2023-04-08T18:37:30.287Z,13.53
2023-04-08T18:39:04.740Z,13.47
2023-04-08T18:40:37.426Z,12.77
2023-04-08T18:42:10.204Z,13.20
2023-04-08T18:43:43.102Z,13.37
2023-04-08T18:45:15.959Z,12.83
2023-04-08T18:46:48.648Z,13.03
2023-04-08T18:48:21.411Z,12.63
2023-04-08T18:49:54.195Z,14.60
2023-04-08T18:51:28.562Z,14.67
2023-04-08T18:53:01.636Z,13.20
2023-04-08T18:54:34.357Z,14.23
2023-04-08T18:56:07.653Z,11.40
2023-04-08T18:57:40.452Z,12.23
2023-04-08T18:59:15.308Z,13.03
2023-04-08T19:00:47.994Z,9.27
2023-04-08T19:02:21.598Z,10.70
2023-04-08T19:03:54.640Z,8.63
2023-04-08T19:05:27.655Z,9.97
2023-04-08T19:07:01.667Z,7.30
2023-04-08T19:08:34.410Z,7.50
2023-04-08T19:10:08.451Z,8.20
2023-04-08T19:11:41.464Z,8.10
2023-04-08T19:13:14.193Z,7.13
2023-04-08T19:14:46.910Z,6.78
2023-04-08T19:16:19.697Z,6.03
2023-04-08T19:17:52.723Z,6.78
2023-04-08T19:19:25.511Z,6.00
2023-04-08T19:20:58.288Z,5.50
2023-04-08T19:22:32.815Z,7.10
2023-04-08T19:24:06.463Z,5.20
2023-04-08T19:25:39.351Z,5.07
2023-04-08T19:27:13.843Z,5.85
2023-04-08T19:28:47.340Z,5.63
2023-04-08T19:30:20.135Z,5.10
2023-04-08T19:31:52.935Z,5.55
2023-04-08T19:33:27.352Z,5.00
2023-04-08T19:35:00.225Z,5.43
2023-04-08T19:36:33.007Z,5.13
2023-04-08T19:38:07.025Z,6.05
2023-04-08T19:39:39.723Z,6.10
2023-04-08T19:41:12.435Z,5.32
2023-04-08T19:42:45.687Z,5.38
2023-04-08T19:44:18.372Z,5.37
2023-04-08T19:45:54.283Z,4.97
2023-04-08T19:47:27.041Z,5.35
2023-04-08T19:49:00.229Z,5.20
2023-04-08T19:50:33.056Z,4.43
2023-04-08T19:52:06.034Z,5.50
2023-04-08T19:53:40.320Z,5.60
2023-04-08T19:55:13.047Z,6.23
2023-04-08T19:56:45.840Z,5.30
2023-04-08T19:58:18.594Z,7.73
2023-04-08T19:59:53.943Z,5.17
2023-04-08T20:01:26.651Z,5.55
2023-04-08T20:02:59.728Z,6.00
2023-04-08T20:04:33.092Z,4.60
2023-04-08T20:06:05.872Z,5.73
2023-04-08T20:07:37.616Z,5.13
2023-04-08T20:09:11.677Z,5.63
2023-04-08T20:10:44.429Z,4.93
2023-04-08T20:12:17.142Z,5.93
2023-04-08T20:13:51.196Z,4.80
2023-04-08T20:15:25.409Z,5.88
2023-04-08T20:16:58.375Z,5.63
2023-04-08T20:18:32.158Z,5.30